This is the latest recevied weather packets stored in our database for station/object LU4HH-11. If no packets are shown the sender has not sent any weather packets the latest 10 day(s).
| Time | Temp. | Humidity | Pressure | Rain* | Wind** | Luminosity | Snow |
|---|---|---|---|---|---|---|---|
| 1778108519 | 28.89° C | 54% | 951 hPa | - | - | 0 W/m² | - |
| 1778107909 | 28.89° C | 54% | 951 hPa | - | - | 0 W/m² | - |
| 1778107299 | 28.33° C | 54% | 951 hPa | - | - | 0 W/m² | - |
| 1778106689 | 28.89° C | 54% | 950 hPa | - | - | 0 W/m² | - |
| 1778106079 | 28.89° C | 54% | 950 hPa | - | - | 0 W/m² | - |
| 1778105469 | 28.89° C | 54% | 950 hPa | - | - | 0 W/m² | - |
| 1778104859 | 28.33° C | 54% | 950 hPa | - | - | 0 W/m² | - |
| 1778104249 | 28.89° C | 54% | 949 hPa | - | - | 0 W/m² | - |
| 1778103639 | 28.89° C | 54% | 949 hPa | - | - | 0 W/m² | - |
| 1778103029 | 28.33° C | 54% | 949 hPa | - | - | 0 W/m² | - |
| 1778102419 | 28.33° C | 54% | 949 hPa | - | - | 0 W/m² | - |
| 1778101809 | 28.33° C | 54% | 949 hPa | - | - | 0 W/m² | - |
| 1778101199 | 28.33° C | 54% | 949 hPa | - | - | 0 W/m² | - |
| 1778100589 | 28.33° C | 54% | 949 hPa | - | - | 0 W/m² | - |
| 1778099979 | 28.33° C | 55% | 949 hPa | - | - | 0 W/m² | - |
| 1778099369 | 28.33° C | 55% | 949 hPa | - | - | 0 W/m² | - |
| 1778098759 | 27.78° C | 56% | 950 hPa | - | - | 0 W/m² | - |
| 1778098149 | 27.22° C | 58% | 950 hPa | - | - | 0 W/m² | - |
| 1778097539 | 27.78° C | 56% | 950 hPa | - | - | 0 W/m² | - |
| 1778096929 | 27.78° C | 56% | 950 hPa | - | - | 0 W/m² | - |
| 1778096319 | 27.22° C | 57% | 950 hPa | - | - | 0 W/m² | - |
| 1778095709 | 26.67° C | 59% | 950 hPa | - | - | 0 W/m² | - |
| 1778095099 | 26.67° C | 59% | 950 hPa | - | - | 0 W/m² | - |
| 1778094489 | 25.56° C | 64% | 950 hPa | - | - | 0 W/m² | - |
| 1778093879 | 26.67° C | 60% | 950 hPa | - | - | 0 W/m² | - |
* Rain since midnight (hover to see other rain measurements)
** Current wind speed in m/s (hover to see current wind gust speed)